Ogdensburg, NY (13669)

1:45 AM EST on February 27, 2015 (GMT -0500)
2nd ward | Change Station
CLOSE
Current Station
Personal Weather Station
Location: Ogdensburg, NY
Elevation: 292 ft
Nearby Weather Stations

Elev 292 ft 44.69 °N, 75.50 °W | Updated 9 minutes ago

Partly Cloudy
Partly Cloudy
-9.0 °F
Feels Like -9 °F
N
0.0
Wind Variable Wind from ESE

Today
High -- | Low -- °F
--% Chance of Precip.
Yesterday
High -- | Low -- °F
Precip. -- in
6:43 AM 5:46 PM
Waxing Gibbous, 66% visible
Pressure 30.30 in
Visibility 9.0 miles
Clouds Clear
Windchill -9 °F
Dew Point -11 °F
Humidity 92%
Rainfall 0.00 in
Snow Depth Not available.
UV 0 out of 12
Pollen .30 out of 12
Air Quality Not available.
Flu Activity Not available.
METAR KMSS 270553Z AUTO 21004KT 9SM CLR M23/M27 A3026 RMK AO2 SLP259 T12331272 11150 21239 51010

More Conditions Fewer Conditions

Pressure 30.30 in
Visibility 9.0 miles
Clouds Clear
Windchill -9 °F
Dew Point -11 °F
Humidity 92%
Rainfall 0.00 in
Snow Depth Not available.
UV 0 out of 12
Pollen .30 out of 12
Air Quality Not available.
Flu Activity Not available.
METAR KMSS 270553Z AUTO 21004KT 9SM CLR M23/M27 A3026 RMK AO2 SLP259 T12331272 11150 21239 51010

More Conditions Fewer Conditions

10-Day Weather Forecast

Almanac

Astronomy

Feb. 27, 2015 Rise Set
Actual Time
Civil Twilight
Nautical Twilight
Astronomical Twilight
Moon
Length of Visible Light
Length of Day
Tomorrow will be .
, % of the Moon is Illuminated

Today's Extremes

State Highs State Lows

Community

WunderPhotos

Upload Photos

1,800,646 photos uploaded!

WunderBlogs® & News

Nearby

Air Quality

  Air Quality AQ Index Pollutant
Not available.

Snow Depth

Station Depth Elevation

Earthquake Activity

City Distance Mag. Time & Date
Minimum magnitude displayed is 2.5.

Coastal Water Temperatures

Place Temperature

Nearby Weather Stations